New Vienna, Ohio
Current Conditions -  °F | °C
As of 11:54 PM on Monday 20 Oct 2014 (Local Time) from KILN Reporting Station
Overcast Overcast  
Wind Chill: 50°   Ceiling: 5500
Heat Index: 50°   Visibility: 7mi
Dew Point: 48°   Wind: 5mph
Humidity: 93%   Direction: 240°WSW
Pressure: 29.9"   Gusts: NA
Location:  39.32°N, 83.69°W
Report Text: KILN 210354Z AUTO 24004KT 7SM BKN055 OVC070 10/09 A2990 RMK AO2 SLPNO T01000089
Loading
Personal Weather Stations






























Interactive Weather Map
Tropical Storm Tracking
New forecast layout! Learn more

10-Day Weather Forecast

Advertisements
Track Severe Weather on mobile